Ana Sayfa
METAR-TAF:

METAR-TAF

Havaalanları :

Calgary, Alberta, Kanada

Enlem: 51-07N, Boylam: 114-01W, yükseklik: 1077 m

Güncel hava durumu gözlemi

Rapor saat 22:00 UTC de 19 dakika önce yapıldı.
Rüzgar güneydan 6 kt
Sıcaklık 21°C
Nem 21%
Basınç 1018 hPa
Görüş mesafesi: 64.4 km
30000 ft yükseklikte az bulutlu

METAR: CYYC 172200Z 19006KT 40SM FEW300 21/M02 A3007 RMK CI1 SLP190 DENSITY ALT 5000FT

Saat: 16:19 (22:19 UTC)

Tahmin

Rapor saat 20:39 UTC de 1 saat ve 40 dakika önce yapıldı.
Ayın 17'si saat 21 UTC'den ayın 18'si saat 18 UTC'ye kadar geçerli Tahmin
Rüzgar güneybatıdan 8 kt
Görüş mesafesi: 10 km
24000 ft yükseklikte az bulutlu
Ayın 18'si saat 0400 UTC'den
Rüzgar batıdan 6 kt
Görüş mesafesi: 10 km
Açık gökyüzü
Dönüşüyor
ayın 18'si saat 14 UTC'den ayın 18'si saat 16 UTC'ye kadar
Rüzgar kuzeydoğudan 8 kt

TAF: CYYC 172039Z 1721/1818 22008KT P6SM FEW240 FM180400 27006KT P6SM SKC BECMG 1814/1816 04008KT RMK NXT FCST BY 180000Z

4.000'den fazla havaalanı için hava durumu gözlemleri ve tahminleri (METAR ve TAF raporları).

Kullanılabilir istasyonlar harita üzerinde sarı ve kırmızı noktalarla gösterilir.

İstasyonun adını görmek için fareyi noktanın üzerinde gezdirin.

Sonrasında hava gözlem ve tahminlerini görmek için tıklayın.

Haritayı değiştirmek için: yaklaştırmak için siyah artı işaretli yeşil düğmeye ve uzaklaştırmak için de eksi işaretli düğmeye hızla tıklayın; bitişik haritalar için yeşil okları kullanın.


METAR-TAF: